createdAt,value
2023-02-07T00:00:18.850Z,16.93
2023-02-07T00:03:32.514Z,16.89
2023-02-07T00:06:30.110Z,16.90
2023-02-07T00:09:23.812Z,16.87
2023-02-07T00:12:17.742Z,16.86
2023-02-07T00:15:13.250Z,16.84
2023-02-07T00:18:06.979Z,16.75
2023-02-07T00:21:06.730Z,16.76
2023-02-07T00:24:00.895Z,16.77
2023-02-07T00:26:55.406Z,16.70
2023-02-07T00:29:49.113Z,16.65
2023-02-07T00:32:43.057Z,16.67
2023-02-07T00:35:37.297Z,16.64
2023-02-07T00:38:32.175Z,16.62
2023-02-07T00:41:26.032Z,16.61
2023-02-07T00:44:19.678Z,16.61
2023-02-07T00:47:13.435Z,16.59
2023-02-07T00:50:08.338Z,16.58
2023-02-07T00:53:02.113Z,16.51
2023-02-07T00:55:56.551Z,16.53
2023-02-07T00:58:51.080Z,16.46
2023-02-07T01:01:44.887Z,16.44
2023-02-07T01:04:38.974Z,16.43
2023-02-07T01:07:32.673Z,16.40
2023-02-07T01:10:26.422Z,16.35
2023-02-07T01:13:20.514Z,16.33
2023-02-07T01:16:21.902Z,16.32
2023-02-07T01:19:16.044Z,16.34
2023-02-07T01:22:09.799Z,16.31
2023-02-07T01:25:03.432Z,16.28
2023-02-07T01:27:57.237Z,16.19
2023-02-07T01:30:51.297Z,16.24
2023-02-07T01:33:45.326Z,16.23
2023-02-07T01:36:39.204Z,16.20
2023-02-07T01:39:33.118Z,16.24
2023-02-07T01:42:30.206Z,16.22
2023-02-07T01:45:33.708Z,16.18
2023-02-07T01:48:34.050Z,16.21
2023-02-07T01:51:30.304Z,16.16
2023-02-07T01:54:24.844Z,16.17
2023-02-07T01:57:22.327Z,16.17
2023-02-07T02:00:19.462Z,16.13
2023-02-07T02:03:14.241Z,16.08
2023-02-07T02:06:08.876Z,16.09
2023-02-07T02:09:09.159Z,16.05
2023-02-07T02:13:00.134Z,16.07
2023-02-07T02:16:06.086Z,16.06
2023-02-07T02:19:35.191Z,16.01
2023-02-07T02:23:15.738Z,16.03
2023-02-07T02:26:51.454Z,16.02
2023-02-07T02:30:25.357Z,16.01
2023-02-07T02:33:38.466Z,16.02
2023-02-07T02:36:41.480Z,15.99
2023-02-07T02:39:43.924Z,15.97
2023-02-07T02:42:43.651Z,15.96
2023-02-07T02:45:42.668Z,15.92
2023-02-07T02:48:38.597Z,15.90
2023-02-07T02:51:34.139Z,15.89
2023-02-07T02:54:36.316Z,15.90
2023-02-07T02:57:50.694Z,15.86
2023-02-07T03:01:01.803Z,15.91
2023-02-07T03:04:10.260Z,15.92
2023-02-07T03:07:29.424Z,15.89
2023-02-07T03:10:40.145Z,15.92
2023-02-07T03:13:43.070Z,15.87
2023-02-07T03:16:44.560Z,15.92
2023-02-07T03:19:44.559Z,15.86
2023-02-07T03:22:39.591Z,15.84
2023-02-07T03:25:34.270Z,15.83
2023-02-07T03:28:37.994Z,15.78
2023-02-07T03:31:31.123Z,15.74
2023-02-07T03:34:30.798Z,15.74
2023-02-07T03:37:28.883Z,15.70
2023-02-07T03:40:24.159Z,15.66
2023-02-07T03:43:24.147Z,15.64
2023-02-07T03:46:18.585Z,15.63
2023-02-07T03:49:16.459Z,15.59
2023-02-07T03:52:10.317Z,15.57
2023-02-07T03:55:04.346Z,15.55
2023-02-07T03:57:58.118Z,15.52
2023-02-07T04:00:51.935Z,15.51
2023-02-07T04:03:45.696Z,15.48
2023-02-07T04:06:40.126Z,15.47
2023-02-07T04:09:34.152Z,15.46
2023-02-07T04:12:32.788Z,15.45
2023-02-07T04:15:26.515Z,15.40
2023-02-07T04:18:20.343Z,15.40
2023-02-07T04:21:14.004Z,15.37
2023-02-07T04:24:08.514Z,15.36
2023-02-07T04:27:02.272Z,15.33
2023-02-07T04:29:56.329Z,15.31
2023-02-07T04:32:35.326Z,15.28
2023-02-07T04:35:28.987Z,15.27
2023-02-07T04:38:22.796Z,15.23
2023-02-07T04:41:16.886Z,15.23
2023-02-07T04:44:10.703Z,15.24
2023-02-07T04:47:04.570Z,15.23
2023-02-07T04:49:58.459Z,15.20
2023-02-07T04:52:52.115Z,15.18
2023-02-07T04:55:48.821Z,15.14
2023-02-07T04:58:42.552Z,15.15
2023-02-07T05:01:36.308Z,15.10
2023-02-07T05:04:30.566Z,15.09
2023-02-07T05:07:24.390Z,15.06
2023-02-07T05:10:18.607Z,15.02
2023-02-07T05:13:12.467Z,15.01
2023-02-07T05:16:08.363Z,14.99
2023-02-07T05:19:02.207Z,14.96
2023-02-07T05:21:56.145Z,14.94
2023-02-07T05:24:49.811Z,14.92
2023-02-07T05:27:43.583Z,14.94
2023-02-07T05:30:37.776Z,14.94
2023-02-07T05:33:31.697Z,14.93
2023-02-07T05:36:25.374Z,14.87
2023-02-07T05:39:19.158Z,14.86
2023-02-07T05:42:12.861Z,14.81
2023-02-07T05:45:08.526Z,14.81
2023-02-07T05:48:02.516Z,14.79
2023-02-07T05:50:56.284Z,14.78
2023-02-07T05:53:49.939Z,14.77
2023-02-07T05:56:43.695Z,14.73
2023-02-07T05:59:37.545Z,14.71
2023-02-07T06:02:13.838Z,14.70
2023-02-07T06:05:08.645Z,14.68
2023-02-07T06:08:02.338Z,14.67
2023-02-07T06:10:56.096Z,14.65
2023-02-07T06:13:49.884Z,14.66
2023-02-07T06:16:43.761Z,14.69
2023-02-07T06:19:40.034Z,14.62
2023-02-07T06:22:33.897Z,14.63
2023-02-07T06:25:28.341Z,14.64
2023-02-07T06:28:22.288Z,14.52
2023-02-07T06:31:16.252Z,14.51
2023-02-07T06:34:10.223Z,14.45
2023-02-07T06:37:04.176Z,14.39
2023-02-07T06:39:40.890Z,14.38
2023-02-07T06:42:34.665Z,14.36
2023-02-07T06:45:28.420Z,14.33
2023-02-07T06:48:22.635Z,14.32
2023-02-07T06:51:16.420Z,14.28
2023-02-07T06:54:10.403Z,14.26
2023-02-07T06:57:04.246Z,14.25
2023-02-07T06:59:58.032Z,14.24
2023-02-07T07:02:52.941Z,14.21
2023-02-07T07:05:47.068Z,14.21
2023-02-07T07:08:40.906Z,14.20
2023-02-07T07:11:34.613Z,14.18
2023-02-07T07:14:28.686Z,14.17
2023-02-07T07:17:16.950Z,14.17
2023-02-07T07:20:13.117Z,14.18
2023-02-07T07:23:07.013Z,14.16
2023-02-07T07:26:00.783Z,14.16
2023-02-07T07:28:58.046Z,14.19
2023-02-07T07:31:51.800Z,14.27
2023-02-07T07:34:45.552Z,14.26
2023-02-07T07:37:39.443Z,14.19
2023-02-07T07:40:33.224Z,14.21
2023-02-07T07:43:27.292Z,14.22
2023-02-07T07:46:21.033Z,14.30
2023-02-07T07:49:14.872Z,14.35
2023-02-07T07:52:09.253Z,14.37
2023-02-07T07:55:03.885Z,14.54
2023-02-07T07:57:58.593Z,14.56
2023-02-07T08:00:52.797Z,14.54
2023-02-07T08:03:46.712Z,14.52
2023-02-07T08:06:40.611Z,14.60
2023-02-07T08:09:34.899Z,14.54
2023-02-07T08:12:28.813Z,14.55
2023-02-07T08:15:22.829Z,14.61
2023-02-07T08:18:16.500Z,14.61
2023-02-07T08:21:10.584Z,14.64
2023-02-07T08:24:04.522Z,14.66
2023-02-07T08:26:38.316Z,14.77
2023-02-07T08:29:32.141Z,14.75
2023-02-07T08:32:25.969Z,14.80
2023-02-07T08:35:19.889Z,14.75
2023-02-07T08:38:13.736Z,14.75
2023-02-07T08:41:08.003Z,14.80
2023-02-07T08:43:50.251Z,14.81
2023-02-07T08:46:44.427Z,14.84
2023-02-07T08:49:38.161Z,14.83
2023-02-07T08:52:31.905Z,14.79
2023-02-07T08:55:25.752Z,14.91
2023-02-07T08:58:19.459Z,14.96
2023-02-07T09:01:13.411Z,14.95
2023-02-07T09:04:08.417Z,15.01
2023-02-07T09:07:02.147Z,15.01
2023-02-07T09:09:55.821Z,15.01
2023-02-07T09:12:49.567Z,15.05
2023-02-07T09:15:43.294Z,15.08
2023-02-07T09:18:37.066Z,15.06
2023-02-07T09:21:31.504Z,15.11
2023-02-07T09:24:25.368Z,15.14
2023-02-07T09:27:19.371Z,15.11
2023-02-07T09:30:15.581Z,15.15
2023-02-07T09:33:09.623Z,15.14
2023-02-07T09:36:03.520Z,15.09
2023-02-07T09:38:59.190Z,15.03
2023-02-07T09:42:05.731Z,14.74
2023-02-07T09:45:06.102Z,14.64
2023-02-07T09:48:10.072Z,14.60
2023-02-07T09:51:07.930Z,14.55
2023-02-07T09:54:26.581Z,14.55
2023-02-07T09:57:23.239Z,14.54
2023-02-07T10:00:28.150Z,14.53
2023-02-07T10:03:26.411Z,14.55
2023-02-07T10:06:27.881Z,14.56
2023-02-07T10:09:26.283Z,14.51
2023-02-07T10:12:26.291Z,14.55
2023-02-07T10:15:38.182Z,14.69
2023-02-07T10:18:54.251Z,14.74
2023-02-07T10:21:58.817Z,14.68
2023-02-07T10:25:12.939Z,14.65
2023-02-07T10:28:55.697Z,14.65
2023-02-07T10:31:52.952Z,14.91
2023-02-07T10:34:52.363Z,14.73
2023-02-07T10:37:48.271Z,14.69
2023-02-07T10:40:49.716Z,14.70
2023-02-07T10:43:38.198Z,14.71
2023-02-07T10:46:32.842Z,14.73
2023-02-07T10:49:30.274Z,14.70
2023-02-07T10:52:37.847Z,14.70
2023-02-07T10:55:46.235Z,14.70
2023-02-07T10:58:43.688Z,14.73
2023-02-07T11:01:39.449Z,14.80
2023-02-07T11:04:44.128Z,14.75
2023-02-07T11:07:47.484Z,14.77
2023-02-07T11:10:44.228Z,14.82
2023-02-07T11:13:50.249Z,14.86
2023-02-07T11:16:46.707Z,14.91
2023-02-07T11:19:40.699Z,15.18
2023-02-07T11:22:35.088Z,15.25
2023-02-07T11:25:37.906Z,15.44
2023-02-07T11:28:34.010Z,15.17
2023-02-07T11:31:34.774Z,15.36
2023-02-07T11:34:49.292Z,15.41
2023-02-07T11:38:04.468Z,15.36
2023-02-07T11:41:04.109Z,15.35
2023-02-07T11:44:01.234Z,15.34
2023-02-07T11:46:58.030Z,15.37
2023-02-07T11:49:54.658Z,15.37
2023-02-07T11:52:56.826Z,15.37
2023-02-07T11:55:52.068Z,15.39
2023-02-07T11:58:47.420Z,15.46
2023-02-07T12:01:41.929Z,15.46
2023-02-07T12:04:43.784Z,15.54
2023-02-07T12:07:43.819Z,15.44
2023-02-07T12:10:43.371Z,15.60
2023-02-07T12:13:43.239Z,15.54
2023-02-07T12:16:45.737Z,15.58
2023-02-07T12:19:48.336Z,15.62
2023-02-07T12:22:58.757Z,15.70
2023-02-07T12:26:03.502Z,15.64
2023-02-07T12:29:17.456Z,15.64
2023-02-07T12:32:24.604Z,15.67
2023-02-07T12:35:27.434Z,15.79
2023-02-07T12:38:28.896Z,15.81
2023-02-07T12:41:27.168Z,15.73
2023-02-07T12:44:29.608Z,15.73
2023-02-07T12:47:38.576Z,15.86
2023-02-07T12:51:02.387Z,15.91
2023-02-07T12:54:12.313Z,15.77
2023-02-07T12:57:14.111Z,15.71
2023-02-07T13:00:20.978Z,15.72
2023-02-07T13:03:26.038Z,15.73
2023-02-07T13:06:33.085Z,15.72
2023-02-07T13:09:41.696Z,15.69
2023-02-07T13:12:46.094Z,15.72
2023-02-07T13:15:49.746Z,15.72
2023-02-07T13:18:54.662Z,15.69
2023-02-07T13:22:00.048Z,15.72
2023-02-07T13:24:41.063Z,15.70
2023-02-07T13:27:20.796Z,15.82
2023-02-07T13:30:19.840Z,15.69
2023-02-07T13:33:32.960Z,15.89
2023-02-07T13:36:38.406Z,15.91
2023-02-07T13:39:27.611Z,15.82
2023-02-07T13:42:36.134Z,15.69
2023-02-07T13:45:44.949Z,15.71
2023-02-07T13:48:44.516Z,15.76
2023-02-07T13:51:52.664Z,15.80
2023-02-07T13:54:57.169Z,15.86
2023-02-07T13:58:10.320Z,15.95
2023-02-07T14:01:22.127Z,16.03
2023-02-07T14:04:16.421Z,16.01
2023-02-07T14:07:19.429Z,15.97
2023-02-07T14:10:45.717Z,15.93
2023-02-07T14:13:40.461Z,15.95
2023-02-07T14:16:47.015Z,15.90
2023-02-07T14:19:56.164Z,15.88
2023-02-07T14:23:18.327Z,15.93
2023-02-07T14:26:57.289Z,15.88
2023-02-07T14:30:22.668Z,15.98
2023-02-07T14:33:20.917Z,15.86
2023-02-07T14:36:29.768Z,15.85
2023-02-07T14:39:33.161Z,15.97
2023-02-07T14:42:22.375Z,15.98
2023-02-07T14:45:24.632Z,15.93
2023-02-07T14:48:43.930Z,15.91
2023-02-07T14:51:48.426Z,15.96
2023-02-07T14:54:49.845Z,15.91
2023-02-07T14:57:55.434Z,15.92
2023-02-07T15:00:55.384Z,15.91
2023-02-07T15:04:09.046Z,15.90
2023-02-07T15:07:02.742Z,15.98
2023-02-07T15:09:41.186Z,16.15
2023-02-07T15:12:35.195Z,15.99
2023-02-07T15:15:32.260Z,16.00
2023-02-07T15:18:37.017Z,16.00
2023-02-07T15:21:38.188Z,16.04
2023-02-07T15:24:25.716Z,15.93
2023-02-07T15:27:26.910Z,15.99
2023-02-07T15:30:23.377Z,16.05
2023-02-07T15:33:22.162Z,16.12
2023-02-07T15:39:23.091Z,16.08
2023-02-07T15:42:20.067Z,16.11
2023-02-07T15:45:31.343Z,16.21
2023-02-07T15:48:25.063Z,16.26
2023-02-07T15:51:22.275Z,16.18
2023-02-07T15:54:19.746Z,16.24
2023-02-07T15:57:26.031Z,16.97
2023-02-07T16:00:25.153Z,17.04
2023-02-07T16:03:23.652Z,16.75
2023-02-07T16:06:21.954Z,16.73
2023-02-07T16:09:43.236Z,16.63
2023-02-07T16:12:50.095Z,16.68
2023-02-07T16:15:56.979Z,16.25
2023-02-07T16:18:51.097Z,16.21
2023-02-07T16:21:46.259Z,16.20
2023-02-07T16:24:43.595Z,16.12
2023-02-07T16:27:38.741Z,16.17
2023-02-07T16:30:39.355Z,16.25
2023-02-07T16:33:33.368Z,16.24
2023-02-07T16:36:27.743Z,16.23
2023-02-07T16:39:23.382Z,16.21
2023-02-07T16:42:19.851Z,16.36
2023-02-07T16:45:24.367Z,16.42
2023-02-07T16:48:18.468Z,16.40
2023-02-07T16:51:12.292Z,16.32
2023-02-07T16:54:06.038Z,16.37
2023-02-07T16:57:04.006Z,16.55
2023-02-07T16:59:58.312Z,16.50
2023-02-07T17:02:54.098Z,16.59
2023-02-07T17:05:48.526Z,16.63
2023-02-07T17:08:42.404Z,16.75
2023-02-07T17:11:36.195Z,17.07
2023-02-07T17:14:30.060Z,17.02
2023-02-07T17:17:23.988Z,17.10
2023-02-07T17:20:27.490Z,17.12
2023-02-07T17:23:21.595Z,17.08
2023-02-07T17:26:25.055Z,17.06
2023-02-07T17:29:20.550Z,16.94
2023-02-07T17:31:56.780Z,16.89
2023-02-07T17:34:50.830Z,16.78
2023-02-07T17:37:45.600Z,16.81
2023-02-07T17:40:42.403Z,16.99
2023-02-07T17:43:37.012Z,16.91
2023-02-07T17:46:33.719Z,16.88
2023-02-07T17:49:28.002Z,16.87
2023-02-07T17:52:22.398Z,16.79
2023-02-07T17:55:17.400Z,16.84
2023-02-07T17:58:14.231Z,16.81
2023-02-07T18:01:29.381Z,16.92
2023-02-07T18:04:24.062Z,17.00
2023-02-07T18:07:18.402Z,17.07
2023-02-07T18:10:18.065Z,17.02
2023-02-07T18:13:12.694Z,17.08
2023-02-07T18:16:09.018Z,17.18
2023-02-07T18:19:04.078Z,17.17
2023-02-07T18:21:58.849Z,17.25
2023-02-07T18:24:53.332Z,17.15
2023-02-07T18:27:47.001Z,17.13
2023-02-07T18:30:42.695Z,17.15
2023-02-07T18:33:20.099Z,17.00
2023-02-07T18:36:15.370Z,17.08
2023-02-07T18:39:10.265Z,17.11
2023-02-07T18:42:05.075Z,16.97
2023-02-07T18:44:59.861Z,16.94
2023-02-07T18:47:54.269Z,16.97
2023-02-07T18:50:49.374Z,17.00
2023-02-07T18:53:44.821Z,16.97
2023-02-07T18:56:41.515Z,16.97
2023-02-07T18:59:36.510Z,16.89
2023-02-07T19:02:30.853Z,17.10
2023-02-07T19:05:25.572Z,17.10
2023-02-07T19:08:19.758Z,17.05
2023-02-07T19:11:14.325Z,17.01
2023-02-07T19:14:13.833Z,16.95
2023-02-07T19:17:08.136Z,17.13
2023-02-07T19:20:02.363Z,17.22
2023-02-07T19:22:56.697Z,17.22
2023-02-07T19:25:53.738Z,17.20
2023-02-07T19:28:47.990Z,17.19
2023-02-07T19:31:43.601Z,17.09
2023-02-07T19:34:39.222Z,17.06
2023-02-07T19:37:33.650Z,17.06
2023-02-07T19:40:28.057Z,17.02
2023-02-07T19:43:22.281Z,17.02
2023-02-07T19:46:16.466Z,16.98
2023-02-07T19:49:11.771Z,16.96
2023-02-07T19:52:08.048Z,17.04
2023-02-07T19:55:02.249Z,17.03
2023-02-07T19:57:59.498Z,16.93
2023-02-07T20:00:53.503Z,16.95
2023-02-07T20:03:51.209Z,16.98
2023-02-07T20:06:43.782Z,16.96
2023-02-07T20:09:37.689Z,16.95
2023-02-07T20:12:32.158Z,16.92
2023-02-07T20:15:26.525Z,16.89
2023-02-07T20:18:21.753Z,16.94
2023-02-07T20:21:19.116Z,16.91
2023-02-07T20:24:13.512Z,16.90
2023-02-07T20:27:07.846Z,16.88
2023-02-07T20:30:02.441Z,16.84
2023-02-07T20:32:48.556Z,16.84
2023-02-07T20:35:42.866Z,16.87
2023-02-07T20:38:37.313Z,16.82
2023-02-07T20:41:36.373Z,16.86
2023-02-07T20:44:31.309Z,16.81
2023-02-07T20:47:26.669Z,16.80
2023-02-07T20:50:11.944Z,16.84
2023-02-07T20:53:06.832Z,16.83
2023-02-07T20:56:17.234Z,16.80
2023-02-07T20:59:11.138Z,16.79
2023-02-07T21:02:07.130Z,16.80
2023-02-07T21:05:01.968Z,16.86
2023-02-07T21:07:56.211Z,16.86
2023-02-07T21:10:50.911Z,16.88
2023-02-07T21:13:36.331Z,16.75
2023-02-07T21:16:31.788Z,16.77
2023-02-07T21:19:27.402Z,16.78
2023-02-07T21:22:23.117Z,16.75
2023-02-07T21:25:17.611Z,16.74
2023-02-07T21:28:13.075Z,16.77
2023-02-07T21:31:10.188Z,16.74
2023-02-07T21:34:05.033Z,16.79
2023-02-07T21:37:00.493Z,16.79
2023-02-07T21:39:55.824Z,16.70
2023-02-07T21:42:49.902Z,16.72
2023-02-07T21:45:45.119Z,16.82
2023-02-07T21:48:41.751Z,16.84
2023-02-07T21:51:37.482Z,16.70
2023-02-07T21:54:31.639Z,16.60
2023-02-07T21:57:25.922Z,16.70
2023-02-07T22:00:20.985Z,16.61
2023-02-07T22:03:15.112Z,16.57
2023-02-07T22:06:10.371Z,16.55
2023-02-07T22:09:05.792Z,16.54
2023-02-07T22:11:56.902Z,16.53
2023-02-07T22:14:51.254Z,16.52
2023-02-07T22:17:45.728Z,16.52
2023-02-07T22:20:22.214Z,16.52
2023-02-07T22:23:16.330Z,16.42
2023-02-07T22:26:11.694Z,16.36
2023-02-07T22:29:08.814Z,16.36
2023-02-07T22:32:03.129Z,16.38
2023-02-07T22:34:57.214Z,16.39
2023-02-07T22:37:51.604Z,16.32
2023-02-07T22:40:46.153Z,16.31
2023-02-07T22:43:41.653Z,16.25
2023-02-07T22:46:20.903Z,16.28
2023-02-07T22:49:15.231Z,16.27
2023-02-07T22:52:09.871Z,16.28
2023-02-07T22:55:04.265Z,16.20
2023-02-07T22:57:58.438Z,16.21
2023-02-07T23:00:52.572Z,16.20
2023-02-07T23:03:46.843Z,16.20
2023-02-07T23:06:41.186Z,16.18
2023-02-07T23:09:35.636Z,16.19
2023-02-07T23:12:29.979Z,16.14
2023-02-07T23:15:24.480Z,16.09
2023-02-07T23:18:23.765Z,16.06
2023-02-07T23:21:01.977Z,16.05
2023-02-07T23:23:58.592Z,16.03
2023-02-07T23:26:53.370Z,15.98
2023-02-07T23:29:47.603Z,15.94
2023-02-07T23:32:42.608Z,15.98
2023-02-07T23:35:39.404Z,15.92
2023-02-07T23:38:54.162Z,15.89
2023-02-07T23:41:49.230Z,15.88
2023-02-07T23:44:43.675Z,15.89
2023-02-07T23:47:38.618Z,15.85
2023-02-07T23:50:32.852Z,15.82
2023-02-07T23:53:28.060Z,15.83
2023-02-07T23:56:24.414Z,15.82
2023-02-07T23:59:18.627Z,15.77
